sensor_id;sensor_type;location;lat;lon;timestamp;pressure;altitude;pressure_sealevel;temperature;humidity
19208;BME280;9737;59.466;18.036;2022-08-14T00:02:27;99181.72;;;14.75;38.51
19208;BME280;9737;59.466;18.036;2022-08-14T00:04:57;99203.09;;;14.91;39.28
19208;BME280;9737;59.466;18.036;2022-08-14T00:07:26;99189.88;;;14.90;39.30
19208;BME280;9737;59.466;18.036;2022-08-14T00:09:55;99165.97;;;14.72;39.09
19208;BME280;9737;59.466;18.036;2022-08-14T00:12:51;99129.91;;;14.51;39.42
19208;BME280;9737;59.466;18.036;2022-08-14T00:15:27;99150.78;;;14.64;39.69
19208;BME280;9737;59.466;18.036;2022-08-14T00:18:11;99138.75;;;14.60;39.62
19208;BME280;9737;59.466;18.036;2022-08-14T00:21:00;99148.59;;;14.68;39.66
19208;BME280;9737;59.466;18.036;2022-08-14T00:23:29;99160.31;;;14.75;39.70
19208;BME280;9737;59.466;18.036;2022-08-14T00:25:59;99088.94;;;14.35;39.86
19208;BME280;9737;59.466;18.036;2022-08-14T00:28:35;99126.22;;;14.61;40.16
19208;BME280;9737;59.466;18.036;2022-08-14T00:31:05;99132.53;;;14.68;40.13
19208;BME280;9737;59.466;18.036;2022-08-14T00:33:36;99106.81;;;14.59;40.39
19208;BME280;9737;59.466;18.036;2022-08-14T00:36:19;99051.69;;;14.25;40.16
19208;BME280;9737;59.466;18.036;2022-08-14T00:39:11;99089.44;;;14.54;40.64
19208;BME280;9737;59.466;18.036;2022-08-14T00:41:45;99082.44;;;14.53;40.79
19208;BME280;9737;59.466;18.036;2022-08-14T00:44:15;99052.31;;;14.35;40.52
19208;BME280;9737;59.466;18.036;2022-08-14T00:46:59;99080.25;;;14.49;40.99
19208;BME280;9737;59.466;18.036;2022-08-14T00:49:28;99074.09;;;14.48;40.99
19208;BME280;9737;59.466;18.036;2022-08-14T00:52:04;99043.31;;;14.36;41.30
19208;BME280;9737;59.466;18.036;2022-08-14T00:54:33;99018.25;;;14.13;41.42
19208;BME280;9737;59.466;18.036;2022-08-14T00:57:06;99046.31;;;14.33;41.50
19208;BME280;9737;59.466;18.036;2022-08-14T00:59:36;99049.47;;;14.37;41.53
19208;BME280;9737;59.466;18.036;2022-08-14T01:02:08;99035.13;;;14.30;41.71
19208;BME280;9737;59.466;18.036;2022-08-14T01:04:37;98996.91;;;14.05;41.88
19208;BME280;9737;59.466;18.036;2022-08-14T01:07:21;99059.16;;;14.38;41.89
19208;BME280;9737;59.466;18.036;2022-08-14T01:09:51;99038.63;;;14.30;42.07
19208;BME280;9737;59.466;18.036;2022-08-14T01:12:21;99041.31;;;14.30;41.79
19208;BME280;9737;59.466;18.036;2022-08-14T01:14:58;99005.94;;;14.04;41.93
19208;BME280;9737;59.466;18.036;2022-08-14T01:17:29;99064.34;;;14.39;42.50
19208;BME280;9737;59.466;18.036;2022-08-14T01:20:16;99045.97;;;14.36;42.13
19208;BME280;9737;59.466;18.036;2022-08-14T01:23:09;99038.50;;;14.23;42.58
19208;BME280;9737;59.466;18.036;2022-08-14T01:25:46;98981.56;;;13.99;42.69
19208;BME280;9737;59.466;18.036;2022-08-14T01:28:18;99033.28;;;14.30;42.86
19208;BME280;9737;59.466;18.036;2022-08-14T01:31:10;99009.06;;;14.15;42.97
19208;BME280;9737;59.466;18.036;2022-08-14T01:33:41;99022.09;;;14.26;43.13
19208;BME280;9737;59.466;18.036;2022-08-14T01:36:30;98999.72;;;14.11;43.02
19208;BME280;9737;59.466;18.036;2022-08-14T01:39:07;99022.28;;;14.25;43.24
19208;BME280;9737;59.466;18.036;2022-08-14T01:41:40;99011.91;;;14.14;43.32
19208;BME280;9737;59.466;18.036;2022-08-14T01:44:14;98983.88;;;14.02;43.25
19208;BME280;9737;59.466;18.036;2022-08-14T01:47:01;99003.56;;;14.09;43.57
19208;BME280;9737;59.466;18.036;2022-08-14T01:49:31;98986.22;;;14.05;43.72
19208;BME280;9737;59.466;18.036;2022-08-14T01:52:08;99008.22;;;14.15;43.93
19208;BME280;9737;59.466;18.036;2022-08-14T01:54:57;98977.88;;;14.00;44.07
19208;BME280;9737;59.466;18.036;2022-08-14T01:57:27;99007.41;;;14.14;43.83
19208;BME280;9737;59.466;18.036;2022-08-14T02:00:15;98973.56;;;13.90;44.04
19208;BME280;9737;59.466;18.036;2022-08-14T02:02:44;98971.53;;;13.92;44.26
19208;BME280;9737;59.466;18.036;2022-08-14T02:05:18;98956.16;;;13.86;44.33
19208;BME280;9737;59.466;18.036;2022-08-14T02:07:47;98997.41;;;14.08;44.47
19208;BME280;9737;59.466;18.036;2022-08-14T02:10:37;98905.13;;;13.65;44.50
19208;BME280;9737;59.466;18.036;2022-08-14T02:13:14;98911.78;;;13.69;44.95
19208;BME280;9737;59.466;18.036;2022-08-14T02:15:45;98936.31;;;13.81;45.07
19208;BME280;9737;59.466;18.036;2022-08-14T02:18:16;98946.00;;;13.90;44.97
19208;BME280;9737;59.466;18.036;2022-08-14T02:20:45;98945.47;;;13.86;45.14
19208;BME280;9737;59.466;18.036;2022-08-14T02:23:17;98951.84;;;13.93;45.20
19208;BME280;9737;59.466;18.036;2022-08-14T02:26:00;98882.72;;;13.58;45.00
19208;BME280;9737;59.466;18.036;2022-08-14T02:28:54;98924.44;;;13.83;45.53
19208;BME280;9737;59.466;18.036;2022-08-14T02:31:27;98927.59;;;13.87;45.64
19208;BME280;9737;59.466;18.036;2022-08-14T02:34:11;98880.75;;;13.60;45.83
19208;BME280;9737;59.466;18.036;2022-08-14T02:36:54;98859.72;;;13.49;46.05
19208;BME280;9737;59.466;18.036;2022-08-14T02:39:33;98907.75;;;13.81;45.85
19208;BME280;9737;59.466;18.036;2022-08-14T02:42:05;98901.41;;;13.74;46.23
19208;BME280;9737;59.466;18.036;2022-08-14T02:44:40;98895.06;;;13.75;46.24
19208;BME280;9737;59.466;18.036;2022-08-14T02:47:16;98886.41;;;13.73;46.55
19208;BME280;9737;59.466;18.036;2022-08-14T02:49:48;98867.06;;;13.63;46.36
19208;BME280;9737;59.466;18.036;2022-08-14T02:52:23;98819.38;;;13.36;46.61
19208;BME280;9737;59.466;18.036;2022-08-14T02:55:12;98823.03;;;13.43;46.76
19208;BME280;9737;59.466;18.036;2022-08-14T02:57:48;98806.69;;;13.38;46.92
19208;BME280;9737;59.466;18.036;2022-08-14T03:00:31;98830.00;;;13.52;46.90
19208;BME280;9737;59.466;18.036;2022-08-14T03:03:06;98829.69;;;13.47;47.22
19208;BME280;9737;59.466;18.036;2022-08-14T03:05:35;98840.69;;;13.52;47.52
19208;BME280;9737;59.466;18.036;2022-08-14T03:08:09;98852.38;;;13.59;47.14
19208;BME280;9737;59.466;18.036;2022-08-14T03:10:45;98848.34;;;13.55;47.60
19208;BME280;9737;59.466;18.036;2022-08-14T03:13:17;98810.50;;;13.27;47.54
19208;BME280;9737;59.466;18.036;2022-08-14T03:15:49;98859.03;;;13.55;47.72
19208;BME280;9737;59.466;18.036;2022-08-14T03:18:23;98841.53;;;13.44;47.82
19208;BME280;9737;59.466;18.036;2022-08-14T03:21:03;98877.91;;;13.61;47.79
19208;BME280;9737;59.466;18.036;2022-08-14T03:23:33;98876.25;;;13.60;48.33
19208;BME280;9737;59.466;18.036;2022-08-14T03:26:06;98877.06;;;13.61;48.19
19208;BME280;9737;59.466;18.036;2022-08-14T03:28:48;98873.75;;;13.51;48.36
19208;BME280;9737;59.466;18.036;2022-08-14T03:31:19;98880.56;;;13.53;48.41
19208;BME280;9737;59.466;18.036;2022-08-14T03:33:54;98900.94;;;13.62;48.50
19208;BME280;9737;59.466;18.036;2022-08-14T03:36:26;98900.59;;;13.66;48.71
19208;BME280;9737;59.466;18.036;2022-08-14T03:39:18;98893.75;;;13.55;49.03
19208;BME280;9737;59.466;18.036;2022-08-14T03:41:51;98900.44;;;13.51;48.78
19208;BME280;9737;59.466;18.036;2022-08-14T03:44:22;98946.00;;;13.74;49.22
19208;BME280;9737;59.466;18.036;2022-08-14T03:47:11;98968.88;;;13.76;49.15
19208;BME280;9737;59.466;18.036;2022-08-14T03:49:41;98986.06;;;13.82;49.50
19208;BME280;9737;59.466;18.036;2022-08-14T03:52:16;98948.34;;;13.52;49.53
19208;BME280;9737;59.466;18.036;2022-08-14T03:55:06;98979.25;;;13.63;49.58
19208;BME280;9737;59.466;18.036;2022-08-14T03:57:35;99044.38;;;13.94;49.91
19208;BME280;9737;59.466;18.036;2022-08-14T04:00:10;99050.84;;;13.84;49.77
19208;BME280;9737;59.466;18.036;2022-08-14T04:02:59;99089.47;;;13.98;50.11
19208;BME280;9737;59.466;18.036;2022-08-14T04:05:28;99104.84;;;13.95;50.28
19208;BME280;9737;59.466;18.036;2022-08-14T04:08:09;99158.97;;;14.22;50.47
19208;BME280;9737;59.466;18.036;2022-08-14T04:10:56;99147.44;;;14.05;50.55
19208;BME280;9737;59.466;18.036;2022-08-14T04:13:24;99220.16;;;14.33;50.44
19208;BME280;9737;59.466;18.036;2022-08-14T04:15:58;99255.25;;;14.38;50.88
19208;BME280;9737;59.466;18.036;2022-08-14T04:18:31;99270.97;;;14.41;51.00
19208;BME280;9737;59.466;18.036;2022-08-14T04:20:59;99303.91;;;14.42;51.10
19208;BME280;9737;59.466;18.036;2022-08-14T04:23:30;99368.03;;;14.68;51.07
19208;BME280;9737;59.466;18.036;2022-08-14T04:26:00;99410.19;;;14.74;51.29
19208;BME280;9737;59.466;18.036;2022-08-14T04:28:29;99456.06;;;14.87;51.38
19208;BME280;9737;59.466;18.036;2022-08-14T04:31:20;99496.88;;;14.89;51.65
19208;BME280;9737;59.466;18.036;2022-08-14T04:34:08;99580.66;;;15.15;51.64
19208;BME280;9737;59.466;18.036;2022-08-14T04:36:43;99609.09;;;15.16;51.91
19208;BME280;9737;59.466;18.036;2022-08-14T04:39:25;99634.53;;;15.12;52.06
19208;BME280;9737;59.466;18.036;2022-08-14T04:42:12;99744.75;;;15.60;52.20
19208;BME280;9737;59.466;18.036;2022-08-14T04:44:58;99730.06;;;15.38;52.38
19208;BME280;9737;59.466;18.036;2022-08-14T04:47:28;99825.91;;;15.70;52.27
19208;BME280;9737;59.466;18.036;2022-08-14T04:50:19;99933.31;;;16.02;52.78
19208;BME280;9737;59.466;18.036;2022-08-14T04:53:08;99992.53;;;16.09;52.65
19208;BME280;9737;59.466;18.036;2022-08-14T04:55:39;100080.81;;;16.20;53.12
19208;BME280;9737;59.466;18.036;2022-08-14T04:58:10;100182.16;;;16.52;53.08
19208;BME280;9737;59.466;18.036;2022-08-14T05:00:58;100363.72;;;17.07;53.28
19208;BME280;9737;59.466;18.036;2022-08-14T05:03:31;100450.91;;;17.12;53.42
19208;BME280;9737;59.466;18.036;2022-08-14T05:06:06;100635.13;;;17.70;53.26
19208;BME280;9737;59.466;18.036;2022-08-14T05:08:54;100773.34;;;18.04;53.82
19208;BME280;9737;59.466;18.036;2022-08-14T05:11:26;100881.47;;;18.17;54.08
19208;BME280;9737;59.466;18.036;2022-08-14T05:14:02;100978.91;;;18.31;54.33
19208;BME280;9737;59.466;18.036;2022-08-14T05:16:51;101136.50;;;18.81;54.36
19208;BME280;9737;59.466;18.036;2022-08-14T05:19:23;101252.53;;;19.07;54.50
19208;BME280;9737;59.466;18.036;2022-08-14T05:21:59;101325.44;;;19.25;54.59
19208;BME280;9737;59.466;18.036;2022-08-14T05:24:46;101461.09;;;19.55;54.81
19208;BME280;9737;59.466;18.036;2022-08-14T05:27:17;101553.41;;;19.68;54.92
19208;BME280;9737;59.466;18.036;2022-08-14T05:29:50;101680.91;;;20.08;55.21
19208;BME280;9737;59.466;18.036;2022-08-14T05:32:25;101785.81;;;20.32;55.28
19208;BME280;9737;59.466;18.036;2022-08-14T05:34:57;101850.97;;;20.49;55.52
19208;BME280;9737;59.466;18.036;2022-08-14T05:37:30;101914.84;;;20.59;55.67
19208;BME280;9737;59.466;18.036;2022-08-14T05:39:59;101988.38;;;20.72;55.69
19208;BME280;9737;59.466;18.036;2022-08-14T05:42:28;102108.25;;;21.02;55.82
19208;BME280;9737;59.466;18.036;2022-08-14T05:45:03;102171.81;;;21.17;56.04
19208;BME280;9737;59.466;18.036;2022-08-14T05:47:39;102242.78;;;21.30;56.05
19208;BME280;9737;59.466;18.036;2022-08-14T05:50:12;102304.91;;;21.42;56.21
19208;BME280;9737;59.466;18.036;2022-08-14T05:52:44;102352.53;;;21.54;56.49
19208;BME280;9737;59.466;18.036;2022-08-14T05:55:13;102470.03;;;21.72;56.54
19208;BME280;9737;59.466;18.036;2022-08-14T05:57:52;102529.06;;;21.78;56.37
19208;BME280;9737;59.466;18.036;2022-08-14T06:00:25;102625.63;;;22.10;56.73
19208;BME280;9737;59.466;18.036;2022-08-14T06:03:05;102728.66;;;22.40;56.64
19208;BME280;9737;59.466;18.036;2022-08-14T06:05:36;102743.03;;;22.31;56.67
19208;BME280;9737;59.466;18.036;2022-08-14T06:08:05;102839.88;;;22.50;56.71
19208;BME280;9737;59.466;18.036;2022-08-14T06:11:03;102988.72;;;22.96;56.88
19208;BME280;9737;59.466;18.036;2022-08-14T06:13:34;103024.44;;;23.01;56.91
19208;BME280;9737;59.466;18.036;2022-08-14T06:16:14;103043.91;;;23.06;57.18
19208;BME280;9737;59.466;18.036;2022-08-14T06:18:46;103048.63;;;23.04;57.19
19208;BME280;9737;59.466;18.036;2022-08-14T06:21:20;103100.00;;;23.17;57.07
19208;BME280;9737;59.466;18.036;2022-08-14T06:23:49;103068.13;;;22.98;57.20
19208;BME280;9737;59.466;18.036;2022-08-14T06:26:18;103181.53;;;23.27;57.39
19208;BME280;9737;59.466;18.036;2022-08-14T06:28:48;103304.91;;;23.56;57.43
19208;BME280;9737;59.466;18.036;2022-08-14T06:31:18;103268.97;;;23.41;57.39
19208;BME280;9737;59.466;18.036;2022-08-14T06:33:49;103320.44;;;23.54;57.45
19208;BME280;9737;59.466;18.036;2022-08-14T06:36:45;103359.72;;;23.61;57.52
19208;BME280;9737;59.466;18.036;2022-08-14T06:39:22;103223.00;;;23.29;57.47
19208;BME280;9737;59.466;18.036;2022-08-14T06:42:03;103262.94;;;23.49;57.68
19208;BME280;9737;59.466;18.036;2022-08-14T06:44:32;103281.69;;;23.41;57.55
19208;BME280;9737;59.466;18.036;2022-08-14T06:47:01;103243.00;;;23.28;57.61
19208;BME280;9737;59.466;18.036;2022-08-14T06:49:31;103312.78;;;23.59;57.38
19208;BME280;9737;59.466;18.036;2022-08-14T06:52:15;103379.44;;;23.74;57.42
19208;BME280;9737;59.466;18.036;2022-08-14T06:54:44;103378.47;;;23.75;57.59
19208;BME280;9737;59.466;18.036;2022-08-14T06:57:13;103422.53;;;23.79;57.74
19208;BME280;9737;59.466;18.036;2022-08-14T06:59:43;103407.84;;;23.70;57.62
19208;BME280;9737;59.466;18.036;2022-08-14T07:02:11;103389.72;;;23.71;57.63
19208;BME280;9737;59.466;18.036;2022-08-14T07:04:58;103515.78;;;24.02;57.62
19208;BME280;9737;59.466;18.036;2022-08-14T07:07:50;103571.72;;;24.16;57.60
19208;BME280;9737;59.466;18.036;2022-08-14T07:10:21;103517.97;;;23.97;57.49
19208;BME280;9737;59.466;18.036;2022-08-14T07:12:51;103487.88;;;23.89;57.44
19208;BME280;9737;59.466;18.036;2022-08-14T07:15:30;103544.94;;;24.00;57.14
19208;BME280;9737;59.466;18.036;2022-08-14T07:18:06;103578.28;;;24.13;57.29
19208;BME280;9737;59.466;18.036;2022-08-14T07:20:35;103646.41;;;24.34;57.48
19208;BME280;9737;59.466;18.036;2022-08-14T07:23:06;103657.63;;;24.18;57.28
19208;BME280;9737;59.466;18.036;2022-08-14T07:25:46;103741.50;;;24.35;57.23
19208;BME280;9737;59.466;18.036;2022-08-14T07:28:19;103879.38;;;24.80;57.45
19208;BME280;9737;59.466;18.036;2022-08-14T07:30:51;103832.03;;;24.60;57.27
19208;BME280;9737;59.466;18.036;2022-08-14T07:33:23;103902.06;;;24.91;57.36
19208;BME280;9737;59.466;18.036;2022-08-14T07:35:57;103972.63;;;25.06;57.25
19208;BME280;9737;59.466;18.036;2022-08-14T07:38:27;104036.78;;;25.21;57.34
19208;BME280;9737;59.466;18.036;2022-08-14T07:41:04;104080.00;;;25.25;57.23
19208;BME280;9737;59.466;18.036;2022-08-14T07:43:42;104111.22;;;25.21;57.17
19208;BME280;9737;59.466;18.036;2022-08-14T07:46:20;104184.06;;;25.42;57.06
19208;BME280;9737;59.466;18.036;2022-08-14T07:48:56;104230.56;;;25.62;57.09
19208;BME280;9737;59.466;18.036;2022-08-14T07:51:25;104327.06;;;25.84;57.13
19208;BME280;9737;59.466;18.036;2022-08-14T07:54:05;104333.41;;;25.84;57.21
19208;BME280;9737;59.466;18.036;2022-08-14T07:56:38;104400.09;;;25.91;57.18
19208;BME280;9737;59.466;18.036;2022-08-14T07:59:14;104433.53;;;26.06;56.72
19208;BME280;9737;59.466;18.036;2022-08-14T08:01:44;104406.50;;;26.03;56.72
19208;BME280;9737;59.466;18.036;2022-08-14T08:04:21;104388.69;;;25.86;56.77
19208;BME280;9737;59.466;18.036;2022-08-14T08:06:53;104463.94;;;26.13;56.73
19208;BME280;9737;59.466;18.036;2022-08-14T08:09:25;104586.25;;;26.43;56.49
19208;BME280;9737;59.466;18.036;2022-08-14T08:12:02;104652.56;;;26.56;56.85
19208;BME280;9737;59.466;18.036;2022-08-14T08:14:40;104728.50;;;26.75;56.70
19208;BME280;9737;59.466;18.036;2022-08-14T08:17:28;104768.03;;;26.82;56.34
19208;BME280;9737;59.466;18.036;2022-08-14T08:20:05;104768.66;;;26.85;56.37
19208;BME280;9737;59.466;18.036;2022-08-14T08:22:37;104794.34;;;26.83;56.48
19208;BME280;9737;59.466;18.036;2022-08-14T08:25:17;104815.41;;;26.94;56.47
19208;BME280;9737;59.466;18.036;2022-08-14T08:27:56;104830.50;;;26.86;56.30
19208;BME280;9737;59.466;18.036;2022-08-14T08:30:26;104879.44;;;27.02;56.46
19208;BME280;9737;59.466;18.036;2022-08-14T08:32:57;104877.47;;;27.04;56.32
19208;BME280;9737;59.466;18.036;2022-08-14T08:35:30;104935.34;;;27.22;55.95
19208;BME280;9737;59.466;18.036;2022-08-14T08:38:18;105037.38;;;27.46;56.29
19208;BME280;9737;59.466;18.036;2022-08-14T08:41:08;105097.53;;;27.59;56.20
19208;BME280;9737;59.466;18.036;2022-08-14T08:43:38;105068.69;;;27.42;55.89
19208;BME280;9737;59.466;18.036;2022-08-14T08:46:14;105171.16;;;27.75;55.75
19208;BME280;9737;59.466;18.036;2022-08-14T08:48:51;105211.97;;;27.78;55.64
19208;BME280;9737;59.466;18.036;2022-08-14T08:51:21;105263.81;;;27.92;55.90
19208;BME280;9737;59.466;18.036;2022-08-14T08:54:02;105337.28;;;28.11;55.78
19208;BME280;9737;59.466;18.036;2022-08-14T08:56:38;105494.88;;;28.41;55.48
19208;BME280;9737;59.466;18.036;2022-08-14T08:59:22;105657.28;;;28.81;55.57
19208;BME280;9737;59.466;18.036;2022-08-14T09:02:01;105679.88;;;28.84;55.52
19208;BME280;9737;59.466;18.036;2022-08-14T09:04:35;105757.03;;;29.05;55.29
19208;BME280;9737;59.466;18.036;2022-08-14T09:07:19;105746.84;;;28.94;54.99
19208;BME280;9737;59.466;18.036;2022-08-14T09:09:53;105791.25;;;28.99;55.05
19208;BME280;9737;59.466;18.036;2022-08-14T09:12:28;105906.38;;;29.26;55.04
19208;BME280;9737;59.466;18.036;2022-08-14T09:15:00;105984.03;;;29.54;54.67
19208;BME280;9737;59.466;18.036;2022-08-14T09:17:30;106076.59;;;29.65;54.89
19208;BME280;9737;59.466;18.036;2022-08-14T09:19:59;106173.75;;;29.89;54.58
19208;BME280;9737;59.466;18.036;2022-08-14T09:22:37;106180.78;;;29.80;54.48
19208;BME280;9737;59.466;18.036;2022-08-14T09:25:14;106419.28;;;30.42;54.52
19208;BME280;9737;59.466;18.036;2022-08-14T09:27:46;106823.09;;;31.19;53.99
19208;BME280;9737;59.466;18.036;2022-08-14T09:30:15;107001.66;;;31.68;54.18
19208;BME280;9737;59.466;18.036;2022-08-14T09:33:10;107136.41;;;32.01;54.23
19208;BME280;9737;59.466;18.036;2022-08-14T09:36:20;107474.19;;;32.68;53.67
19208;BME280;9737;59.466;18.036;2022-08-14T09:39:12;108136.47;;;34.03;53.56
19208;BME280;9737;59.466;18.036;2022-08-14T09:42:02;109016.91;;;35.76;53.60
19208;BME280;9737;59.466;18.036;2022-08-14T09:45:02;109031.91;;;35.72;53.34
19208;BME280;9737;59.466;18.036;2022-08-14T09:47:47;109060.31;;;35.77;53.31
19208;BME280;9737;59.466;18.036;2022-08-14T09:50:23;109679.38;;;37.10;52.77
19208;BME280;9737;59.466;18.036;2022-08-14T09:52:59;109897.03;;;37.53;52.72
19208;BME280;9737;59.466;18.036;2022-08-14T09:55:32;109985.34;;;37.68;52.26
19208;BME280;9737;59.466;18.036;2022-08-14T09:58:10;109788.88;;;37.27;52.45
19208;BME280;9737;59.466;18.036;2022-08-14T10:00:48;110015.41;;;37.80;52.21
19208;BME280;9737;59.466;18.036;2022-08-14T10:03:27;110105.22;;;38.04;52.07
19208;BME280;9737;59.466;18.036;2022-08-14T10:06:05;109541.78;;;37.02;51.75
19208;BME280;9737;59.466;18.036;2022-08-14T10:08:43;109751.97;;;37.43;51.25
19208;BME280;9737;59.466;18.036;2022-08-14T10:11:21;109953.97;;;37.85;51.48
19208;BME280;9737;59.466;18.036;2022-08-14T10:13:51;109851.97;;;37.65;50.74
19208;BME280;9737;59.466;18.036;2022-08-14T10:16:25;109919.81;;;37.81;50.97
19208;BME280;9737;59.466;18.036;2022-08-14T10:19:04;109984.41;;;37.90;50.66
19208;BME280;9737;59.466;18.036;2022-08-14T10:21:36;110467.03;;;38.95;50.11
19208;BME280;9737;59.466;18.036;2022-08-14T10:24:27;111188.00;;;40.30;49.64
19208;BME280;9737;59.466;18.036;2022-08-14T10:27:03;111164.63;;;40.32;49.61
19208;BME280;9737;59.466;18.036;2022-08-14T10:29:34;111271.81;;;40.54;49.29
19208;BME280;9737;59.466;18.036;2022-08-14T10:32:05;111420.94;;;40.78;49.18
19208;BME280;9737;59.466;18.036;2022-08-14T10:35:03;111601.19;;;41.20;48.82
19208;BME280;9737;59.466;18.036;2022-08-14T10:37:41;111190.84;;;40.53;48.57
19208;BME280;9737;59.466;18.036;2022-08-14T10:40:24;111476.09;;;40.98;48.14
19208;BME280;9737;59.466;18.036;2022-08-14T10:43:17;111220.09;;;40.66;47.97
19208;BME280;9737;59.466;18.036;2022-08-14T10:45:54;111664.34;;;41.52;47.55
19208;BME280;9737;59.466;18.036;2022-08-14T10:48:56;111708.63;;;41.67;47.11
19208;BME280;9737;59.466;18.036;2022-08-14T10:51:26;111387.88;;;41.13;47.26
19208;BME280;9737;59.466;18.036;2022-08-14T10:53:56;111387.53;;;41.22;46.74
19208;BME280;9737;59.466;18.036;2022-08-14T10:56:42;111074.00;;;40.61;46.69
19208;BME280;9737;59.466;18.036;2022-08-14T10:59:11;111274.28;;;41.09;45.89
19208;BME280;9737;59.466;18.036;2022-08-14T11:01:41;110719.63;;;40.08;46.11
19208;BME280;9737;59.466;18.036;2022-08-14T11:04:22;111029.28;;;40.61;45.71
19208;BME280;9737;59.466;18.036;2022-08-14T11:06:57;111381.03;;;41.43;44.92
19208;BME280;9737;59.466;18.036;2022-08-14T11:09:35;111054.88;;;40.72;44.96
19208;BME280;9737;59.466;18.036;2022-08-14T11:12:07;110174.31;;;39.15;44.71
19208;BME280;9737;59.466;18.036;2022-08-14T11:15:01;109750.53;;;38.46;44.68
19208;BME280;9737;59.466;18.036;2022-08-14T11:17:31;109692.78;;;38.32;44.15
19208;BME280;9737;59.466;18.036;2022-08-14T11:20:06;109905.25;;;38.70;43.86
19208;BME280;9737;59.466;18.036;2022-08-14T11:22:42;109808.19;;;38.61;43.70
19208;BME280;9737;59.466;18.036;2022-08-14T11:25:25;109546.69;;;38.22;43.35
19208;BME280;9737;59.466;18.036;2022-08-14T11:28:10;109278.84;;;37.51;43.35
19208;BME280;9737;59.466;18.036;2022-08-14T11:30:47;109423.22;;;38.06;43.15
19208;BME280;9737;59.466;18.036;2022-08-14T11:33:24;109389.47;;;37.96;42.38
19208;BME280;9737;59.466;18.036;2022-08-14T11:36:07;109439.13;;;38.04;42.80
19208;BME280;9737;59.466;18.036;2022-08-14T11:38:44;109167.91;;;37.62;42.34
19208;BME280;9737;59.466;18.036;2022-08-14T11:41:14;109196.91;;;37.74;42.10
19208;BME280;9737;59.466;18.036;2022-08-14T11:43:44;109022.50;;;37.29;41.81
19208;BME280;9737;59.466;18.036;2022-08-14T11:46:24;109324.84;;;38.07;41.58
19208;BME280;9737;59.466;18.036;2022-08-14T11:49:03;109163.63;;;37.72;41.41
19208;BME280;9737;59.466;18.036;2022-08-14T11:51:34;108620.41;;;36.55;41.49
19208;BME280;9737;59.466;18.036;2022-08-14T11:54:22;108714.56;;;36.89;41.27
19208;BME280;9737;59.466;18.036;2022-08-14T11:57:01;108597.13;;;36.72;41.04
19208;BME280;9737;59.466;18.036;2022-08-14T11:59:34;108339.28;;;36.09;40.58
19208;BME280;9737;59.466;18.036;2022-08-14T12:02:11;107930.66;;;35.26;40.52
19208;BME280;9737;59.466;18.036;2022-08-14T12:05:04;107803.59;;;35.07;40.36
19208;BME280;9737;59.466;18.036;2022-08-14T12:07:47;107493.66;;;34.52;39.95
19208;BME280;9737;59.466;18.036;2022-08-14T12:10:16;107331.19;;;34.01;39.91
19208;BME280;9737;59.466;18.036;2022-08-14T12:12:56;107034.00;;;33.58;39.78
19208;BME280;9737;59.466;18.036;2022-08-14T12:15:31;106829.09;;;33.02;39.49
19208;BME280;9737;59.466;18.036;2022-08-14T12:18:01;106547.69;;;32.40;39.73
19208;BME280;9737;59.466;18.036;2022-08-14T12:20:38;106354.81;;;32.14;39.50
19208;BME280;9737;59.466;18.036;2022-08-14T12:23:22;106374.63;;;32.19;39.31
19208;BME280;9737;59.466;18.036;2022-08-14T12:26:01;106197.16;;;31.74;39.37
19208;BME280;9737;59.466;18.036;2022-08-14T12:28:50;105965.31;;;31.23;38.80
19208;BME280;9737;59.466;18.036;2022-08-14T12:31:26;106009.88;;;31.39;38.71
19208;BME280;9737;59.466;18.036;2022-08-14T12:34:14;105998.97;;;31.26;38.45
19208;BME280;9737;59.466;18.036;2022-08-14T12:37:00;105997.41;;;31.46;38.56
19208;BME280;9737;59.466;18.036;2022-08-14T12:39:34;106081.94;;;31.68;38.25
19208;BME280;9737;59.466;18.036;2022-08-14T12:42:06;106153.41;;;31.69;38.20
19208;BME280;9737;59.466;18.036;2022-08-14T12:44:57;106221.94;;;31.98;38.07
19208;BME280;9737;59.466;18.036;2022-08-14T12:47:30;106074.94;;;31.64;37.89
19208;BME280;9737;59.466;18.036;2022-08-14T12:49:59;106131.75;;;31.65;37.83
19208;BME280;9737;59.466;18.036;2022-08-14T12:52:30;106114.66;;;31.72;37.65
19208;BME280;9737;59.466;18.036;2022-08-14T12:55:20;106149.78;;;31.82;37.61
19208;BME280;9737;59.466;18.036;2022-08-14T12:58:00;106168.63;;;31.99;38.07
19208;BME280;9737;59.466;18.036;2022-08-14T13:00:51;105924.78;;;31.25;37.88
19208;BME280;9737;59.466;18.036;2022-08-14T13:03:40;105908.44;;;31.34;37.39
19208;BME280;9737;59.466;18.036;2022-08-14T13:06:11;106018.00;;;31.64;37.60
19208;BME280;9737;59.466;18.036;2022-08-14T13:08:41;106140.44;;;31.95;37.10
19208;BME280;9737;59.466;18.036;2022-08-14T13:11:20;106150.81;;;31.92;37.25
19208;BME280;9737;59.466;18.036;2022-08-14T13:13:56;106203.38;;;32.13;37.03
19208;BME280;9737;59.466;18.036;2022-08-14T13:16:28;106193.03;;;32.03;37.18
19208;BME280;9737;59.466;18.036;2022-08-14T13:19:04;106090.22;;;31.68;36.87
19208;BME280;9737;59.466;18.036;2022-08-14T13:21:38;106200.50;;;32.14;37.05
19208;BME280;9737;59.466;18.036;2022-08-14T13:24:30;106097.47;;;31.93;36.74
19208;BME280;9737;59.466;18.036;2022-08-14T13:27:01;106025.00;;;31.68;37.04
19208;BME280;9737;59.466;18.036;2022-08-14T13:29:38;106153.44;;;31.93;36.62
19208;BME280;9737;59.466;18.036;2022-08-14T13:32:13;106306.63;;;32.44;36.43
19208;BME280;9737;59.466;18.036;2022-08-14T13:34:43;106157.59;;;31.99;36.45
19208;BME280;9737;59.466;18.036;2022-08-14T13:37:17;106236.59;;;32.22;36.59
19208;BME280;9737;59.466;18.036;2022-08-14T13:39:50;106347.75;;;32.47;36.17
19208;BME280;9737;59.466;18.036;2022-08-14T13:42:26;106673.63;;;33.14;36.31
19208;BME280;9737;59.466;18.036;2022-08-14T13:45:06;106834.91;;;33.61;36.07